sensor_id;sensor_type;location;lat;lon;timestamp;temperature;humidity
22503;DHT22;11418;48.118;9.992;2023-04-20T00:01:21;4.20;99.90
22503;DHT22;11418;48.118;9.992;2023-04-20T00:05:22;4.10;99.90
22503;DHT22;11418;48.118;9.992;2023-04-20T00:09:23;4.30;99.90
22503;DHT22;11418;48.118;9.992;2023-04-20T00:13:23;4.50;99.90
22503;DHT22;11418;48.118;9.992;2023-04-20T00:17:24;4.50;99.90
22503;DHT22;11418;48.118;9.992;2023-04-20T00:21:24;4.40;99.90
22503;DHT22;11418;48.118;9.992;2023-04-20T00:25:25;4.10;99.90
22503;DHT22;11418;48.118;9.992;2023-04-20T00:29:25;4.20;99.90
22503;DHT22;11418;48.118;9.992;2023-04-20T00:33:26;4.30;99.90
22503;DHT22;11418;48.118;9.992;2023-04-20T00:37:26;4.60;99.90
22503;DHT22;11418;48.118;9.992;2023-04-20T00:41:27;4.40;99.90
22503;DHT22;11418;48.118;9.992;2023-04-20T00:45:28;4.40;99.90
22503;DHT22;11418;48.118;9.992;2023-04-20T00:49:29;4.50;99.90
22503;DHT22;11418;48.118;9.992;2023-04-20T00:53:30;4.50;99.90
22503;DHT22;11418;48.118;9.992;2023-04-20T00:57:30;4.50;99.90
22503;DHT22;11418;48.118;9.992;2023-04-20T01:01:31;4.40;99.90
22503;DHT22;11418;48.118;9.992;2023-04-20T01:05:32;4.40;99.90
22503;DHT22;11418;48.118;9.992;2023-04-20T01:09:32;4.40;99.90
22503;DHT22;11418;48.118;9.992;2023-04-20T01:13:33;4.30;99.90
22503;DHT22;11418;48.118;9.992;2023-04-20T01:17:33;4.20;99.90
22503;DHT22;11418;48.118;9.992;2023-04-20T01:21:35;4.20;99.90
22503;DHT22;11418;48.118;9.992;2023-04-20T01:25:36;4.20;99.90
22503;DHT22;11418;48.118;9.992;2023-04-20T01:29:36;4.30;99.90
22503;DHT22;11418;48.118;9.992;2023-04-20T01:33:37;4.30;99.90
22503;DHT22;11418;48.118;9.992;2023-04-20T01:37:38;4.40;99.90
22503;DHT22;11418;48.118;9.992;2023-04-20T01:41:39;4.30;99.90
22503;DHT22;11418;48.118;9.992;2023-04-20T01:45:39;4.40;99.90
22503;DHT22;11418;48.118;9.992;2023-04-20T01:49:40;4.40;99.90
22503;DHT22;11418;48.118;9.992;2023-04-20T01:53:40;4.40;99.90
22503;DHT22;11418;48.118;9.992;2023-04-20T01:57:41;4.40;99.90
22503;DHT22;11418;48.118;9.992;2023-04-20T02:01:42;4.40;99.90
22503;DHT22;11418;48.118;9.992;2023-04-20T02:05:43;4.50;99.90
22503;DHT22;11418;48.118;9.992;2023-04-20T02:09:43;4.30;99.90
22503;DHT22;11418;48.118;9.992;2023-04-20T02:13:43;4.30;99.90
22503;DHT22;11418;48.118;9.992;2023-04-20T02:17:44;4.30;99.90
22503;DHT22;11418;48.118;9.992;2023-04-20T02:21:46;4.30;99.90
22503;DHT22;11418;48.118;9.992;2023-04-20T02:25:46;4.40;99.90
22503;DHT22;11418;48.118;9.992;2023-04-20T02:29:47;4.40;99.90
22503;DHT22;11418;48.118;9.992;2023-04-20T02:33:47;4.40;99.90
22503;DHT22;11418;48.118;9.992;2023-04-20T02:37:49;4.50;99.90
22503;DHT22;11418;48.118;9.992;2023-04-20T02:41:49;4.30;99.90
22503;DHT22;11418;48.118;9.992;2023-04-20T02:45:49;4.30;99.90
22503;DHT22;11418;48.118;9.992;2023-04-20T02:49:50;4.40;99.90
22503;DHT22;11418;48.118;9.992;2023-04-20T02:53:51;4.40;99.90
22503;DHT22;11418;48.118;9.992;2023-04-20T02:57:51;4.50;99.90
22503;DHT22;11418;48.118;9.992;2023-04-20T03:01:51;4.40;99.90
22503;DHT22;11418;48.118;9.992;2023-04-20T03:05:52;4.50;99.90
22503;DHT22;11418;48.118;9.992;2023-04-20T03:09:52;4.40;99.90
22503;DHT22;11418;48.118;9.992;2023-04-20T03:13:53;4.50;99.90
22503;DHT22;11418;48.118;9.992;2023-04-20T03:17:53;4.30;99.90
22503;DHT22;11418;48.118;9.992;2023-04-20T03:21:54;4.40;99.90
22503;DHT22;11418;48.118;9.992;2023-04-20T03:25:54;4.30;99.90
22503;DHT22;11418;48.118;9.992;2023-04-20T03:29:55;4.40;99.90
22503;DHT22;11418;48.118;9.992;2023-04-20T03:33:55;4.30;99.90
22503;DHT22;11418;48.118;9.992;2023-04-20T03:37:56;4.40;99.90
22503;DHT22;11418;48.118;9.992;2023-04-20T03:41:56;4.30;99.90
22503;DHT22;11418;48.118;9.992;2023-04-20T03:45:57;4.30;99.90
22503;DHT22;11418;48.118;9.992;2023-04-20T03:49:57;4.40;99.90
22503;DHT22;11418;48.118;9.992;2023-04-20T03:53:58;4.40;99.90
22503;DHT22;11418;48.118;9.992;2023-04-20T03:57:58;4.30;99.90
22503;DHT22;11418;48.118;9.992;2023-04-20T04:01:58;4.30;99.90
22503;DHT22;11418;48.118;9.992;2023-04-20T04:05:59;4.20;99.90
22503;DHT22;11418;48.118;9.992;2023-04-20T04:09:59;4.30;99.90
22503;DHT22;11418;48.118;9.992;2023-04-20T04:14:02;4.30;99.90
22503;DHT22;11418;48.118;9.992;2023-04-20T04:18:04;4.20;99.90
22503;DHT22;11418;48.118;9.992;2023-04-20T04:22:05;4.40;99.90
22503;DHT22;11418;48.118;9.992;2023-04-20T04:26:06;4.40;99.90
22503;DHT22;11418;48.118;9.992;2023-04-20T04:30:06;4.30;99.90
22503;DHT22;11418;48.118;9.992;2023-04-20T04:34:08;4.40;99.90
22503;DHT22;11418;48.118;9.992;2023-04-20T04:38:08;4.40;99.90
22503;DHT22;11418;48.118;9.992;2023-04-20T04:42:08;4.50;99.90
22503;DHT22;11418;48.118;9.992;2023-04-20T04:46:09;4.60;99.90
22503;DHT22;11418;48.118;9.992;2023-04-20T04:50:10;4.40;99.90
22503;DHT22;11418;48.118;9.992;2023-04-20T04:54:11;4.40;99.90
22503;DHT22;11418;48.118;9.992;2023-04-20T04:58:11;4.30;99.90
22503;DHT22;11418;48.118;9.992;2023-04-20T05:02:11;4.30;99.90
22503;DHT22;11418;48.118;9.992;2023-04-20T05:06:12;4.30;99.90
22503;DHT22;11418;48.118;9.992;2023-04-20T05:10:12;4.40;99.90
22503;DHT22;11418;48.118;9.992;2023-04-20T05:14:13;4.40;99.90
22503;DHT22;11418;48.118;9.992;2023-04-20T05:18:13;4.40;99.90
22503;DHT22;11418;48.118;9.992;2023-04-20T05:22:14;4.50;99.90
22503;DHT22;11418;48.118;9.992;2023-04-20T05:26:15;4.50;99.90
22503;DHT22;11418;48.118;9.992;2023-04-20T05:30:16;4.60;99.90
22503;DHT22;11418;48.118;9.992;2023-04-20T05:34:16;4.60;99.90
22503;DHT22;11418;48.118;9.992;2023-04-20T05:38:17;4.50;99.90
22503;DHT22;11418;48.118;9.992;2023-04-20T05:42:17;4.60;99.90
22503;DHT22;11418;48.118;9.992;2023-04-20T05:46:18;4.60;99.90
22503;DHT22;11418;48.118;9.992;2023-04-20T05:50:19;4.60;99.90
22503;DHT22;11418;48.118;9.992;2023-04-20T05:54:19;4.60;99.90
22503;DHT22;11418;48.118;9.992;2023-04-20T05:58:20;4.60;99.90
22503;DHT22;11418;48.118;9.992;2023-04-20T06:02:20;4.50;99.90
22503;DHT22;11418;48.118;9.992;2023-04-20T06:06:20;4.60;99.90
22503;DHT22;11418;48.118;9.992;2023-04-20T06:10:21;4.60;99.90
22503;DHT22;11418;48.118;9.992;2023-04-20T06:14:21;4.60;99.90
22503;DHT22;11418;48.118;9.992;2023-04-20T06:18:22;4.60;99.90
22503;DHT22;11418;48.118;9.992;2023-04-20T06:22:23;4.60;99.90
22503;DHT22;11418;48.118;9.992;2023-04-20T06:26:24;4.60;99.90
22503;DHT22;11418;48.118;9.992;2023-04-20T06:30:25;4.80;99.90
22503;DHT22;11418;48.118;9.992;2023-04-20T06:34:25;4.80;99.90
22503;DHT22;11418;48.118;9.992;2023-04-20T06:38:26;4.80;99.90
22503;DHT22;11418;48.118;9.992;2023-04-20T06:42:26;4.80;99.90
22503;DHT22;11418;48.118;9.992;2023-04-20T06:46:27;4.80;99.90
22503;DHT22;11418;48.118;9.992;2023-04-20T06:50:27;4.80;99.90
22503;DHT22;11418;48.118;9.992;2023-04-20T06:54:28;4.80;99.90
22503;DHT22;11418;48.118;9.992;2023-04-20T06:58:28;4.90;99.90
22503;DHT22;11418;48.118;9.992;2023-04-20T07:02:28;4.90;99.90
22503;DHT22;11418;48.118;9.992;2023-04-20T07:06:29;4.90;99.90
22503;DHT22;11418;48.118;9.992;2023-04-20T07:10:29;4.80;99.90
22503;DHT22;11418;48.118;9.992;2023-04-20T07:14:30;4.90;99.90
22503;DHT22;11418;48.118;9.992;2023-04-20T07:18:30;4.90;99.90
22503;DHT22;11418;48.118;9.992;2023-04-20T07:22:31;5.00;99.90
22503;DHT22;11418;48.118;9.992;2023-04-20T07:26:31;5.10;99.90
22503;DHT22;11418;48.118;9.992;2023-04-20T07:30:32;5.00;99.90
22503;DHT22;11418;48.118;9.992;2023-04-20T07:34:32;5.10;99.90
22503;DHT22;11418;48.118;9.992;2023-04-20T07:38:33;5.30;99.90
22503;DHT22;11418;48.118;9.992;2023-04-20T07:42:33;5.60;99.90
22503;DHT22;11418;48.118;9.992;2023-04-20T07:46:36;5.60;99.90
22503;DHT22;11418;48.118;9.992;2023-04-20T07:50:36;5.90;99.90
22503;DHT22;11418;48.118;9.992;2023-04-20T07:54:37;5.80;99.90
22503;DHT22;11418;48.118;9.992;2023-04-20T07:58:37;5.50;99.90
22503;DHT22;11418;48.118;9.992;2023-04-20T08:02:39;5.40;99.90
22503;DHT22;11418;48.118;9.992;2023-04-20T08:06:40;5.60;99.90
22503;DHT22;11418;48.118;9.992;2023-04-20T08:10:40;5.60;99.90
22503;DHT22;11418;48.118;9.992;2023-04-20T08:14:41;5.80;99.90
22503;DHT22;11418;48.118;9.992;2023-04-20T08:18:41;6.10;99.90
22503;DHT22;11418;48.118;9.992;2023-04-20T08:22:42;6.40;99.90
22503;DHT22;11418;48.118;9.992;2023-04-20T08:26:42;6.70;99.90
22503;DHT22;11418;48.118;9.992;2023-04-20T08:30:43;6.40;99.90
22503;DHT22;11418;48.118;9.992;2023-04-20T08:34:44;6.30;99.90
22503;DHT22;11418;48.118;9.992;2023-04-20T08:38:45;6.00;99.90
22503;DHT22;11418;48.118;9.992;2023-04-20T08:42:45;5.90;99.90
22503;DHT22;11418;48.118;9.992;2023-04-20T08:46:46;5.80;99.90
22503;DHT22;11418;48.118;9.992;2023-04-20T08:50:48;5.90;99.90
22503;DHT22;11418;48.118;9.992;2023-04-20T08:54:49;6.20;99.90
22503;DHT22;11418;48.118;9.992;2023-04-20T08:58:50;6.40;99.90
22503;DHT22;11418;48.118;9.992;2023-04-20T09:02:52;6.10;99.90
22503;DHT22;11418;48.118;9.992;2023-04-20T09:06:53;5.80;99.90
22503;DHT22;11418;48.118;9.992;2023-04-20T09:10:54;5.80;99.90
22503;DHT22;11418;48.118;9.992;2023-04-20T09:14:55;5.90;99.90
22503;DHT22;11418;48.118;9.992;2023-04-20T09:18:56;5.90;99.90
22503;DHT22;11418;48.118;9.992;2023-04-20T09:22:56;6.10;99.90
22503;DHT22;11418;48.118;9.992;2023-04-20T09:26:57;6.20;99.90
22503;DHT22;11418;48.118;9.992;2023-04-20T09:30:58;6.80;99.90
22503;DHT22;11418;48.118;9.992;2023-04-20T09:34:58;6.90;99.90
22503;DHT22;11418;48.118;9.992;2023-04-20T09:39:00;6.90;99.90
22503;DHT22;11418;48.118;9.992;2023-04-20T09:43:24;6.50;99.90
22503;DHT22;11418;48.118;9.992;2023-04-20T09:47:23;6.30;99.90
22503;DHT22;11418;48.118;9.992;2023-04-20T09:51:26;6.40;99.90
22503;DHT22;11418;48.118;9.992;2023-04-20T09:55:27;6.00;99.90
22503;DHT22;11418;48.118;9.992;2023-04-20T09:59:30;5.90;99.90
22503;DHT22;11418;48.118;9.992;2023-04-20T10:03:32;6.10;99.90
22503;DHT22;11418;48.118;9.992;2023-04-20T10:07:33;6.10;99.90
22503;DHT22;11418;48.118;9.992;2023-04-20T10:11:35;6.10;99.90
22503;DHT22;11418;48.118;9.992;2023-04-20T10:15:39;6.10;99.90
22503;DHT22;11418;48.118;9.992;2023-04-20T10:19:40;6.10;99.90
22503;DHT22;11418;48.118;9.992;2023-04-20T10:23:47;6.30;99.90
22503;DHT22;11418;48.118;9.992;2023-04-20T10:27:58;6.40;99.90
22503;DHT22;11418;48.118;9.992;2023-04-20T10:31:59;6.30;99.90
22503;DHT22;11418;48.118;9.992;2023-04-20T10:35:59;6.30;99.90
22503;DHT22;11418;48.118;9.992;2023-04-20T10:40:00;6.40;99.90
22503;DHT22;11418;48.118;9.992;2023-04-20T10:44:07;6.40;99.90
22503;DHT22;11418;48.118;9.992;2023-04-20T10:48:10;6.50;99.90
22503;DHT22;11418;48.118;9.992;2023-04-20T10:52:11;6.40;99.90
22503;DHT22;11418;48.118;9.992;2023-04-20T10:56:11;6.60;99.90
22503;DHT22;11418;48.118;9.992;2023-04-20T11:00:16;6.60;99.90
22503;DHT22;11418;48.118;9.992;2023-04-20T11:04:16;6.30;99.90
22503;DHT22;11418;48.118;9.992;2023-04-20T11:08:17;6.20;99.90
22503;DHT22;11418;48.118;9.992;2023-04-20T11:12:17;6.30;99.90
22503;DHT22;11418;48.118;9.992;2023-04-20T11:16:18;6.40;99.90
22503;DHT22;11418;48.118;9.992;2023-04-20T11:20:18;6.70;99.90
22503;DHT22;11418;48.118;9.992;2023-04-20T11:24:19;6.70;99.90
22503;DHT22;11418;48.118;9.992;2023-04-20T11:28:20;6.40;99.90
22503;DHT22;11418;48.118;9.992;2023-04-20T11:32:21;6.50;99.90
22503;DHT22;11418;48.118;9.992;2023-04-20T11:36:22;6.80;99.90
22503;DHT22;11418;48.118;9.992;2023-04-20T11:40:22;6.80;99.90
22503;DHT22;11418;48.118;9.992;2023-04-20T11:44:23;6.60;99.90
22503;DHT22;11418;48.118;9.992;2023-04-20T11:48:25;6.60;99.90
22503;DHT22;11418;48.118;9.992;2023-04-20T11:52:26;7.00;99.90
22503;DHT22;11418;48.118;9.992;2023-04-20T11:56:27;6.80;99.90
22503;DHT22;11418;48.118;9.992;2023-04-20T12:00:27;6.60;99.90
22503;DHT22;11418;48.118;9.992;2023-04-20T12:04:28;6.50;99.90
22503;DHT22;11418;48.118;9.992;2023-04-20T12:08:29;6.60;99.90
22503;DHT22;11418;48.118;9.992;2023-04-20T12:12:29;6.80;99.90
22503;DHT22;11418;48.118;9.992;2023-04-20T12:16:30;6.90;99.90
22503;DHT22;11418;48.118;9.992;2023-04-20T12:20:30;6.90;99.90
22503;DHT22;11418;48.118;9.992;2023-04-20T12:24:31;6.90;99.90
22503;DHT22;11418;48.118;9.992;2023-04-20T12:28:31;6.80;99.90
22503;DHT22;11418;48.118;9.992;2023-04-20T12:32:32;6.20;99.90
22503;DHT22;11418;48.118;9.992;2023-04-20T12:36:32;6.00;99.90
22503;DHT22;11418;48.118;9.992;2023-04-20T12:40:34;6.00;99.90
22503;DHT22;11418;48.118;9.992;2023-04-20T12:44:34;6.00;99.90
22503;DHT22;11418;48.118;9.992;2023-04-20T12:48:35;6.20;99.90
22503;DHT22;11418;48.118;9.992;2023-04-20T12:52:35;6.40;99.90
22503;DHT22;11418;48.118;9.992;2023-04-20T12:56:36;6.40;99.90
22503;DHT22;11418;48.118;9.992;2023-04-20T13:00:36;6.60;99.90
22503;DHT22;11418;48.118;9.992;2023-04-20T13:04:37;6.70;99.90
22503;DHT22;11418;48.118;9.992;2023-04-20T13:08:37;6.30;99.90
22503;DHT22;11418;48.118;9.992;2023-04-20T13:12:38;6.40;99.90
22503;DHT22;11418;48.118;9.992;2023-04-20T13:16:38;6.60;99.90
22503;DHT22;11418;48.118;9.992;2023-04-20T13:20:39;6.80;99.90
22503;DHT22;11418;48.118;9.992;2023-04-20T13:24:39;6.80;99.90
22503;DHT22;11418;48.118;9.992;2023-04-20T13:28:40;6.60;99.90
22503;DHT22;11418;48.118;9.992;2023-04-20T13:32:40;6.40;99.90
22503;DHT22;11418;48.118;9.992;2023-04-20T13:36:41;6.20;99.90
22503;DHT22;11418;48.118;9.992;2023-04-20T13:40:42;6.20;99.90
22503;DHT22;11418;48.118;9.992;2023-04-20T13:44:43;6.00;99.90
22503;DHT22;11418;48.118;9.992;2023-04-20T13:48:44;6.20;99.90
22503;DHT22;11418;48.118;9.992;2023-04-20T13:52:44;6.20;99.90
22503;DHT22;11418;48.118;9.992;2023-04-20T13:56:44;6.30;99.90
22503;DHT22;11418;48.118;9.992;2023-04-20T14:00:45;6.40;99.90
22503;DHT22;11418;48.118;9.992;2023-04-20T14:04:45;6.50;99.90
22503;DHT22;11418;48.118;9.992;2023-04-20T14:08:46;6.50;99.90
22503;DHT22;11418;48.118;9.992;2023-04-20T14:12:46;6.40;99.90
22503;DHT22;11418;48.118;9.992;2023-04-20T14:16:47;6.10;99.90
22503;DHT22;11418;48.118;9.992;2023-04-20T14:20:48;6.20;99.90
22503;DHT22;11418;48.118;9.992;2023-04-20T14:24:51;6.20;99.90
22503;DHT22;11418;48.118;9.992;2023-04-20T14:28:52;6.20;99.90
22503;DHT22;11418;48.118;9.992;2023-04-20T14:32:56;6.20;99.90
22503;DHT22;11418;48.118;9.992;2023-04-20T14:36:57;6.20;99.90
22503;DHT22;11418;48.118;9.992;2023-04-20T14:40:58;6.20;99.90
22503;DHT22;11418;48.118;9.992;2023-04-20T14:44:58;6.10;99.90
22503;DHT22;11418;48.118;9.992;2023-04-20T14:48:58;6.10;99.90
22503;DHT22;11418;48.118;9.992;2023-04-20T14:52:59;6.00;99.90
22503;DHT22;11418;48.118;9.992;2023-04-20T14:56:59;6.10;99.90
22503;DHT22;11418;48.118;9.992;2023-04-20T15:01:00;6.10;99.90
22503;DHT22;11418;48.118;9.992;2023-04-20T15:05:00;6.20;99.90
22503;DHT22;11418;48.118;9.992;2023-04-20T15:09:01;6.30;99.90
22503;DHT22;11418;48.118;9.992;2023-04-20T15:13:02;6.40;99.90
22503;DHT22;11418;48.118;9.992;2023-04-20T15:17:02;6.40;99.90
22503;DHT22;11418;48.118;9.992;2023-04-20T15:21:03;6.40;99.90
22503;DHT22;11418;48.118;9.992;2023-04-20T15:25:03;6.20;99.90
22503;DHT22;11418;48.118;9.992;2023-04-20T15:29:04;6.20;99.90
22503;DHT22;11418;48.118;9.992;2023-04-20T15:33:05;6.10;99.90
22503;DHT22;11418;48.118;9.992;2023-04-20T15:37:05;6.10;99.90
22503;DHT22;11418;48.118;9.992;2023-04-20T15:41:06;5.90;99.90
22503;DHT22;11418;48.118;9.992;2023-04-20T15:45:06;6.10;99.90
22503;DHT22;11418;48.118;9.992;2023-04-20T15:49:07;6.20;99.90
22503;DHT22;11418;48.118;9.992;2023-04-20T15:53:07;6.20;99.90
22503;DHT22;11418;48.118;9.992;2023-04-20T15:57:08;6.20;99.90
22503;DHT22;11418;48.118;9.992;2023-04-20T16:01:08;6.40;99.90
22503;DHT22;11418;48.118;9.992;2023-04-20T16:05:09;6.40;99.90
22503;DHT22;11418;48.118;9.992;2023-04-20T16:09:09;6.30;99.90
22503;DHT22;11418;48.118;9.992;2023-04-20T16:13:10;6.40;99.90
22503;DHT22;11418;48.118;9.992;2023-04-20T16:17:11;6.40;99.90
22503;DHT22;11418;48.118;9.992;2023-04-20T16:21:11;6.30;99.90
22503;DHT22;11418;48.118;9.992;2023-04-20T16:25:12;6.30;99.90
22503;DHT22;11418;48.118;9.992;2023-04-20T16:29:21;6.40;99.90
22503;DHT22;11418;48.118;9.992;2023-04-20T16:33:22;6.30;99.90
22503;DHT22;11418;48.118;9.992;2023-04-20T16:37:22;6.50;99.90
22503;DHT22;11418;48.118;9.992;2023-04-20T16:41:23;6.30;99.90
22503;DHT22;11418;48.118;9.992;2023-04-20T16:45:25;6.30;99.90
22503;DHT22;11418;48.118;9.992;2023-04-20T16:49:25;6.40;99.90
22503;DHT22;11418;48.118;9.992;2023-04-20T16:53:26;6.10;99.90
22503;DHT22;11418;48.118;9.992;2023-04-20T16:57:26;6.10;99.90
22503;DHT22;11418;48.118;9.992;2023-04-20T17:01:27;6.40;99.90
22503;DHT22;11418;48.118;9.992;2023-04-20T17:05:27;6.20;99.90
22503;DHT22;11418;48.118;9.992;2023-04-20T17:09:28;5.90;99.90
22503;DHT22;11418;48.118;9.992;2023-04-20T17:13:28;6.00;99.90
22503;DHT22;11418;48.118;9.992;2023-04-20T17:17:29;5.90;99.90
22503;DHT22;11418;48.118;9.992;2023-04-20T17:21:29;6.00;99.90
22503;DHT22;11418;48.118;9.992;2023-04-20T17:25:30;6.50;99.90
22503;DHT22;11418;48.118;9.992;2023-04-20T17:29:30;6.30;99.90
22503;DHT22;11418;48.118;9.992;2023-04-20T17:33:35;6.10;99.90
22503;DHT22;11418;48.118;9.992;2023-04-20T17:37:35;6.00;99.90
22503;DHT22;11418;48.118;9.992;2023-04-20T17:41:36;6.30;99.90
22503;DHT22;11418;48.118;9.992;2023-04-20T17:45:36;6.50;99.90
22503;DHT22;11418;48.118;9.992;2023-04-20T17:49:37;6.50;99.90
22503;DHT22;11418;48.118;9.992;2023-04-20T17:53:40;6.50;99.90
22503;DHT22;11418;48.118;9.992;2023-04-20T17:57:40;6.20;99.90
22503;DHT22;11418;48.118;9.992;2023-04-20T18:01:41;6.30;99.90
22503;DHT22;11418;48.118;9.992;2023-04-20T18:05:41;6.70;99.90
22503;DHT22;11418;48.118;9.992;2023-04-20T18:09:42;6.50;99.90
22503;DHT22;11418;48.118;9.992;2023-04-20T18:13:42;6.30;99.90
22503;DHT22;11418;48.118;9.992;2023-04-20T18:17:43;6.20;99.90
22503;DHT22;11418;48.118;9.992;2023-04-20T18:21:44;6.20;99.90
22503;DHT22;11418;48.118;9.992;2023-04-20T18:25:45;6.30;99.90
22503;DHT22;11418;48.118;9.992;2023-04-20T18:29:45;6.10;99.90
22503;DHT22;11418;48.118;9.992;2023-04-20T18:33:46;6.30;99.90
22503;DHT22;11418;48.118;9.992;2023-04-20T18:37:46;6.20;99.90
22503;DHT22;11418;48.118;9.992;2023-04-20T18:41:47;6.30;99.90
22503;DHT22;11418;48.118;9.992;2023-04-20T18:45:47;6.20;99.90
22503;DHT22;11418;48.118;9.992;2023-04-20T18:49:48;6.10;99.90
22503;DHT22;11418;48.118;9.992;2023-04-20T18:53:48;6.00;99.90
22503;DHT22;11418;48.118;9.992;2023-04-20T18:57:49;6.20;99.90
22503;DHT22;11418;48.118;9.992;2023-04-20T19:01:49;6.30;99.90
22503;DHT22;11418;48.118;9.992;2023-04-20T19:05:51;6.30;99.90
22503;DHT22;11418;48.118;9.992;2023-04-20T19:09:51;6.00;99.90
22503;DHT22;11418;48.118;9.992;2023-04-20T19:13:52;5.90;99.90
22503;DHT22;11418;48.118;9.992;2023-04-20T19:17:55;6.00;99.90
22503;DHT22;11418;48.118;9.992;2023-04-20T19:21:56;5.90;99.90
22503;DHT22;11418;48.118;9.992;2023-04-20T19:25:58;6.00;99.90
22503;DHT22;11418;48.118;9.992;2023-04-20T19:29:58;5.90;99.90
22503;DHT22;11418;48.118;9.992;2023-04-20T19:33:59;5.60;99.90
22503;DHT22;11418;48.118;9.992;2023-04-20T19:37:59;5.60;99.90
22503;DHT22;11418;48.118;9.992;2023-04-20T19:42:00;5.60;99.90
22503;DHT22;11418;48.118;9.992;2023-04-20T19:46:01;5.60;99.90
22503;DHT22;11418;48.118;9.992;2023-04-20T19:50:02;5.50;99.90
22503;DHT22;11418;48.118;9.992;2023-04-20T19:54:02;5.90;99.90
22503;DHT22;11418;48.118;9.992;2023-04-20T19:58:04;6.20;99.90
22503;DHT22;11418;48.118;9.992;2023-04-20T20:02:08;6.10;99.90
22503;DHT22;11418;48.118;9.992;2023-04-20T20:06:08;5.90;99.90
22503;DHT22;11418;48.118;9.992;2023-04-20T20:10:09;5.80;99.90
22503;DHT22;11418;48.118;9.992;2023-04-20T20:14:09;5.80;99.90
22503;DHT22;11418;48.118;9.992;2023-04-20T20:18:10;5.90;99.90
22503;DHT22;11418;48.118;9.992;2023-04-20T20:22:11;5.70;99.90
22503;DHT22;11418;48.118;9.992;2023-04-20T20:26:11;5.80;99.90
22503;DHT22;11418;48.118;9.992;2023-04-20T20:30:12;6.00;99.90
22503;DHT22;11418;48.118;9.992;2023-04-20T20:34:13;5.90;99.90
22503;DHT22;11418;48.118;9.992;2023-04-20T20:38:13;5.80;99.90
22503;DHT22;11418;48.118;9.992;2023-04-20T20:42:14;5.60;99.90
22503;DHT22;11418;48.118;9.992;2023-04-20T20:46:14;5.60;99.90
22503;DHT22;11418;48.118;9.992;2023-04-20T20:50:15;5.50;99.90
22503;DHT22;11418;48.118;9.992;2023-04-20T20:54:16;5.40;99.90
22503;DHT22;11418;48.118;9.992;2023-04-20T20:58:16;5.30;99.90
22503;DHT22;11418;48.118;9.992;2023-04-20T21:02:17;5.20;99.90
22503;DHT22;11418;48.118;9.992;2023-04-20T21:06:17;5.30;99.90
22503;DHT22;11418;48.118;9.992;2023-04-20T21:10:18;5.40;99.90
22503;DHT22;11418;48.118;9.992;2023-04-20T21:14:18;5.20;99.90
22503;DHT22;11418;48.118;9.992;2023-04-20T21:18:19;5.00;99.90
22503;DHT22;11418;48.118;9.992;2023-04-20T21:22:19;4.90;99.90
22503;DHT22;11418;48.118;9.992;2023-04-20T21:26:21;4.70;99.90
22503;DHT22;11418;48.118;9.992;2023-04-20T21:30:22;4.50;99.90
22503;DHT22;11418;48.118;9.992;2023-04-20T21:34:22;4.40;99.90
22503;DHT22;11418;48.118;9.992;2023-04-20T21:38:22;4.60;99.90
22503;DHT22;11418;48.118;9.992;2023-04-20T21:42:23;4.70;99.90
22503;DHT22;11418;48.118;9.992;2023-04-20T21:46:24;4.90;99.90
22503;DHT22;11418;48.118;9.992;2023-04-20T21:50:25;5.00;99.90
22503;DHT22;11418;48.118;9.992;2023-04-20T21:54:27;5.20;99.90
22503;DHT22;11418;48.118;9.992;2023-04-20T21:58:28;5.10;99.90
22503;DHT22;11418;48.118;9.992;2023-04-20T22:02:28;5.00;99.90
22503;DHT22;11418;48.118;9.992;2023-04-20T22:06:29;5.10;99.90
22503;DHT22;11418;48.118;9.992;2023-04-20T22:10:31;5.00;99.90
22503;DHT22;11418;48.118;9.992;2023-04-20T22:14:31;4.90;99.90
22503;DHT22;11418;48.118;9.992;2023-04-20T22:18:32;5.10;99.90
22503;DHT22;11418;48.118;9.992;2023-04-20T22:22:33;5.00;99.90
22503;DHT22;11418;48.118;9.992;2023-04-20T22:26:33;4.90;99.90
22503;DHT22;11418;48.118;9.992;2023-04-20T22:30:34;5.10;99.90
22503;DHT22;11418;48.118;9.992;2023-04-20T22:34:35;5.10;99.90
22503;DHT22;11418;48.118;9.992;2023-04-20T22:38:35;5.10;99.90
22503;DHT22;11418;48.118;9.992;2023-04-20T22:42:36;4.80;99.90
22503;DHT22;11418;48.118;9.992;2023-04-20T22:46:36;4.80;99.90
22503;DHT22;11418;48.118;9.992;2023-04-20T22:50:37;4.70;99.90
22503;DHT22;11418;48.118;9.992;2023-04-20T22:54:37;4.70;99.90
22503;DHT22;11418;48.118;9.992;2023-04-20T22:58:38;5.00;99.90
22503;DHT22;11418;48.118;9.992;2023-04-20T23:02:38;5.00;99.90
22503;DHT22;11418;48.118;9.992;2023-04-20T23:06:39;5.00;99.90
22503;DHT22;11418;48.118;9.992;2023-04-20T23:10:42;4.90;99.90
22503;DHT22;11418;48.118;9.992;2023-04-20T23:14:44;4.80;99.90
22503;DHT22;11418;48.118;9.992;2023-04-20T23:18:45;5.40;99.90
22503;DHT22;11418;48.118;9.992;2023-04-20T23:22:46;5.20;99.90
22503;DHT22;11418;48.118;9.992;2023-04-20T23:26:46;5.10;99.90
22503;DHT22;11418;48.118;9.992;2023-04-20T23:30:47;5.30;99.90
22503;DHT22;11418;48.118;9.992;2023-04-20T23:34:47;5.60;99.90
22503;DHT22;11418;48.118;9.992;2023-04-20T23:38:47;5.60;99.90
22503;DHT22;11418;48.118;9.992;2023-04-20T23:42:48;5.40;99.90
22503;DHT22;11418;48.118;9.992;2023-04-20T23:46:48;5.40;99.90
22503;DHT22;11418;48.118;9.992;2023-04-20T23:50:49;5.40;99.90
22503;DHT22;11418;48.118;9.992;2023-04-20T23:54:49;5.30;99.90
22503;DHT22;11418;48.118;9.992;2023-04-20T23:58:50;5.10;99.90
